To NAV CANADA Home Page Login to a new session Search on AWWS site Feedback and Comments Disclaimer Vers la page française équivalente Tips FAQ What's new on the site To the Forecasts and Observations / NOTAM section To "File a Flight Plan" website Publications and other links Update of the User's profile FIC Telephone Numbers My Weather Data Folder Route Weather Data Regional Weather Data Local Weather Data To the Forecasts and Observations / NOTAM section
Request Generated 02/23/2017 at 20:47:05 UTC . Weather information available at that time is displayed.

METAR/TAF

MARYS HARBOUR/NL    (show WxCam)

METAR CYMH 232000Z AUTO 36003KT 330V030 9SM CLR 01/M08 A2969 RMK
SLP056=
METAR CYMH 231900Z AUTO 31008KT 9SM CLR 01/M07 A2967 RMK SLP049=
METAR CYMH 231800Z AUTO 31010G16KT 9SM CLR 02/M07 A2964 RMK SLP041=

TAF CYMH 231938Z 2320/2404 31008KT P6SM SKC
FM240200 VRB03KT P6SM BKN015 TEMPO 2402/2404 BKN025
RMK FCST BASED ON AUTO OBS. NXT FCST BY 240200Z=
Your time UTC time
Weather data provided by Environment Canada and NAV CANADA